createdAt,value
2023-04-02T00:02:21.688Z,100476.98
2023-04-02T00:05:19.817Z,100479.13
2023-04-02T00:08:29.991Z,100480.58
2023-04-02T00:11:32.043Z,100484.45
2023-04-02T00:14:33.554Z,100488.67
2023-04-02T00:17:23.143Z,100491.92
2023-04-02T00:20:17.951Z,100488.98
2023-04-02T00:23:06.396Z,100491.55
2023-04-02T00:25:52.575Z,100496.34
2023-04-02T00:28:39.230Z,100495.70
2023-04-02T00:31:26.183Z,100508.25
2023-04-02T00:34:30.906Z,100512.00
2023-04-02T00:37:23.885Z,100511.26
2023-04-02T00:40:26.833Z,100515.11
2023-04-02T00:43:16.880Z,100513.80
2023-04-02T00:46:14.937Z,100508.92
2023-04-02T00:49:22.693Z,100516.16
2023-04-02T00:52:13.212Z,100518.77
2023-04-02T00:55:16.319Z,100527.95
2023-04-02T00:58:04.604Z,100527.52
2023-04-02T01:00:52.198Z,100523.73
2023-04-02T01:03:39.069Z,100520.05
2023-04-02T01:06:30.229Z,100533.48
2023-04-02T01:09:29.007Z,100535.83
2023-04-02T01:12:27.840Z,100543.77
2023-04-02T01:15:21.507Z,100552.20
2023-04-02T01:18:26.676Z,100555.09
2023-04-02T01:21:17.918Z,100557.16
2023-04-02T01:24:07.387Z,100559.27
2023-04-02T01:26:58.353Z,100561.27
2023-04-02T01:29:51.949Z,100570.94
2023-04-02T01:32:39.544Z,100568.67
2023-04-02T01:35:31.198Z,100575.39
2023-04-02T01:38:25.785Z,100575.48
2023-04-02T01:41:24.083Z,100580.27
2023-04-02T01:44:19.002Z,100580.74
2023-04-02T01:47:12.186Z,100580.95
2023-04-02T01:50:16.076Z,100586.77
2023-04-02T01:53:14.915Z,100590.31
2023-04-02T01:56:02.736Z,100587.54
2023-04-02T01:58:50.101Z,100589.63
2023-04-02T02:02:00.397Z,100591.42
2023-04-02T02:04:48.855Z,100600.02
2023-04-02T02:07:35.786Z,100601.75
2023-04-02T02:10:30.180Z,100602.83
2023-04-02T02:13:16.885Z,100602.99
2023-04-02T02:16:04.603Z,100609.41
2023-04-02T02:18:54.966Z,100603.33
2023-04-02T02:21:45.768Z,100616.29
2023-04-02T02:24:35.765Z,100618.63
2023-04-02T02:27:24.576Z,100616.98
2023-04-02T02:30:33.079Z,100625.48
2023-04-02T02:33:44.717Z,100623.55
2023-04-02T02:36:52.779Z,100626.87
2023-04-02T02:39:44.157Z,100623.35
2023-04-02T02:42:42.835Z,100628.36
2023-04-02T02:45:35.898Z,100632.23
2023-04-02T02:48:27.240Z,100634.02
2023-04-02T02:51:21.983Z,100634.73
2023-04-02T02:54:09.639Z,100638.80
2023-04-02T02:57:06.454Z,100642.41
2023-04-02T02:59:56.997Z,100642.42
2023-04-02T03:02:44.822Z,100646.64
2023-04-02T03:05:31.931Z,100641.76
2023-04-02T03:08:33.484Z,100646.98
2023-04-02T03:11:33.485Z,100651.02
2023-04-02T03:14:45.523Z,100655.38
2023-04-02T03:17:49.303Z,100662.55
2023-04-02T03:20:40.912Z,100662.89
2023-04-02T03:23:36.499Z,100667.14
2023-04-02T03:26:40.902Z,100669.76
2023-04-02T03:29:32.154Z,100662.52
2023-04-02T03:32:24.219Z,100674.98
2023-04-02T03:35:22.520Z,100681.99
2023-04-02T03:38:25.787Z,100686.81
2023-04-02T03:41:12.123Z,100688.65
2023-04-02T03:44:07.759Z,100699.45
2023-04-02T03:47:01.585Z,100703.03
2023-04-02T03:49:56.801Z,100711.20
2023-04-02T03:52:44.952Z,100713.84
2023-04-02T03:55:37.241Z,100715.70
2023-04-02T03:58:32.138Z,100722.80
2023-04-02T04:01:23.288Z,100722.45
2023-04-02T04:04:21.884Z,100731.36
2023-04-02T04:07:15.851Z,100730.75
2023-04-02T04:10:04.681Z,100738.98
2023-04-02T04:12:54.527Z,100742.20
2023-04-02T04:15:51.712Z,100751.32
2023-04-02T04:18:50.002Z,100743.48
2023-04-02T04:21:39.865Z,100761.08
2023-04-02T04:24:32.857Z,100762.80
2023-04-02T04:27:33.787Z,100773.36
2023-04-02T04:30:28.525Z,100770.56
2023-04-02T04:33:23.072Z,100768.86
2023-04-02T04:36:29.184Z,100778.41
2023-04-02T04:39:50.754Z,100778.25
2023-04-02T04:42:41.561Z,100782.86
2023-04-02T04:45:43.232Z,100785.52
2023-04-02T04:48:47.537Z,100790.55
2023-04-02T04:51:45.333Z,100790.95
2023-04-02T04:54:38.351Z,100798.86
2023-04-02T04:57:34.391Z,100799.03
2023-04-02T05:00:49.666Z,100810.09
2023-04-02T05:04:01.600Z,100806.51
2023-04-02T05:06:57.646Z,100815.77
2023-04-02T05:10:10.805Z,100821.29
2023-04-02T05:13:05.808Z,100826.09
2023-04-02T05:16:16.384Z,100828.00
2023-04-02T05:19:21.217Z,100835.63
2023-04-02T05:22:33.416Z,100838.52
2023-04-02T05:25:23.692Z,100843.96
2023-04-02T05:28:30.654Z,100852.44
2023-04-02T05:31:42.200Z,100851.42
2023-04-02T05:34:34.580Z,100850.29
2023-04-02T05:37:26.354Z,100855.39
2023-04-02T05:40:24.294Z,100859.45
2023-04-02T05:43:18.020Z,100860.94
2023-04-02T05:46:15.451Z,100866.45
2023-04-02T05:49:08.697Z,100870.04
2023-04-02T05:52:01.474Z,100875.02
2023-04-02T05:54:57.810Z,100877.63
2023-04-02T05:58:13.517Z,100885.30
2023-04-02T06:01:02.719Z,100885.79
2023-04-02T06:04:26.830Z,100889.14
2023-04-02T06:07:18.444Z,100889.71
2023-04-02T06:10:24.155Z,100902.89
2023-04-02T06:13:17.862Z,100903.16
2023-04-02T06:16:06.271Z,100907.80
2023-04-02T06:18:53.662Z,100915.43
2023-04-02T06:21:50.002Z,100916.43
2023-04-02T06:24:41.273Z,100923.23
2023-04-02T06:27:29.255Z,100927.45
2023-04-02T06:30:41.202Z,100932.69
2023-04-02T06:33:28.136Z,100932.20
2023-04-02T06:36:15.019Z,100938.69
2023-04-02T06:39:07.828Z,100944.73
2023-04-02T06:42:16.587Z,100947.77
2023-04-02T06:45:32.080Z,100954.51
2023-04-02T06:48:52.736Z,100958.60
2023-04-02T06:51:41.761Z,100955.95
2023-04-02T06:54:29.292Z,100959.41
2023-04-02T06:57:20.100Z,100967.99
2023-04-02T07:00:34.403Z,100966.96
2023-04-02T07:03:30.194Z,100976.86
2023-04-02T07:06:21.318Z,100980.20
2023-04-02T07:09:09.924Z,100985.48
2023-04-02T07:11:59.561Z,100989.77
2023-04-02T07:14:47.996Z,100994.06
2023-04-02T07:17:34.616Z,100994.66
2023-04-02T07:20:30.953Z,100995.20
2023-04-02T07:23:21.225Z,101001.38
2023-04-02T07:26:13.075Z,101005.17
2023-04-02T07:28:59.684Z,101008.09
2023-04-02T07:31:46.569Z,101015.55
2023-04-02T07:34:33.338Z,101020.63
2023-04-02T07:37:20.376Z,101020.21
2023-04-02T07:40:11.894Z,101024.69
2023-04-02T07:42:58.138Z,101026.72
2023-04-02T07:45:44.835Z,101022.89
2023-04-02T07:48:31.931Z,101027.92
2023-04-02T07:51:24.411Z,101036.05
2023-04-02T07:54:11.267Z,101045.80
2023-04-02T07:56:57.754Z,101041.48
2023-04-02T07:59:44.200Z,101050.21
2023-04-02T08:02:30.757Z,101052.86
2023-04-02T08:05:18.150Z,101054.64
2023-04-02T08:08:04.900Z,101055.13
2023-04-02T08:10:51.689Z,101056.30
2023-04-02T08:13:38.837Z,101057.13
2023-04-02T08:16:25.777Z,101058.23
2023-04-02T08:19:12.756Z,101061.18
2023-04-02T08:21:59.472Z,101064.85
2023-04-02T08:24:45.893Z,101064.58
2023-04-02T08:27:32.208Z,101063.63
2023-04-02T08:30:19.205Z,101072.39
2023-04-02T08:33:05.610Z,101073.69
2023-04-02T08:35:52.451Z,101070.94
2023-04-02T08:38:38.967Z,101084.04
2023-04-02T08:41:32.290Z,101088.91
2023-04-02T08:44:29.684Z,101089.24
2023-04-02T08:47:20.427Z,101089.81
2023-04-02T08:50:23.184Z,101097.80
2023-04-02T08:53:24.614Z,101099.73
2023-04-02T08:56:18.138Z,101104.38
2023-04-02T08:59:22.832Z,101102.83
2023-04-02T09:02:46.973Z,101093.21
2023-04-02T09:05:37.757Z,101117.75
2023-04-02T09:08:26.467Z,101126.73
2023-04-02T09:11:23.810Z,101122.52
2023-04-02T09:14:18.560Z,101130.44
2023-04-02T09:17:12.638Z,101135.21
2023-04-02T09:20:12.689Z,101137.57
2023-04-02T09:22:59.497Z,101140.88
2023-04-02T09:26:02.908Z,101139.06
2023-04-02T09:28:55.361Z,101144.35
2023-04-02T09:31:46.637Z,101145.48
2023-04-02T09:34:36.146Z,101151.52
2023-04-02T09:37:25.703Z,101157.45
2023-04-02T09:40:32.603Z,101151.83
2023-04-02T09:43:28.325Z,101162.90
2023-04-02T09:46:25.927Z,101171.84
2023-04-02T09:49:16.434Z,101176.86
2023-04-02T09:52:06.184Z,101178.14
2023-04-02T09:55:29.174Z,101190.63
2023-04-02T09:58:17.566Z,101196.40
2023-04-02T10:01:05.185Z,101198.14
2023-04-02T10:03:52.102Z,101206.17
2023-04-02T10:06:49.535Z,101210.95
2023-04-02T10:09:38.604Z,101208.99
2023-04-02T10:12:27.018Z,101216.52
2023-04-02T10:15:23.416Z,101218.86
2023-04-02T10:18:21.802Z,101219.77
2023-04-02T10:21:12.945Z,101226.83
2023-04-02T10:23:59.805Z,101232.98
2023-04-02T10:27:29.836Z,101226.42
2023-04-02T10:30:27.333Z,101235.49
2023-04-02T10:33:22.278Z,101239.83
2023-04-02T10:36:19.673Z,101244.56
2023-04-02T10:39:25.631Z,101245.36
2023-04-02T10:42:28.410Z,101239.36
2023-04-02T10:45:17.585Z,101234.95
2023-04-02T10:48:25.460Z,101244.75
2023-04-02T10:51:46.441Z,101243.67
2023-04-02T10:54:52.642Z,101255.76
2023-04-02T10:57:43.328Z,101259.10
2023-04-02T11:00:34.767Z,101274.48
2023-04-02T11:03:34.294Z,101275.98
2023-04-02T11:06:32.424Z,101273.31
2023-04-02T11:09:24.825Z,101279.27
2023-04-02T11:12:24.539Z,101282.10
2023-04-02T11:15:18.118Z,101281.52
2023-04-02T11:18:04.931Z,101287.55
2023-04-02T11:20:56.339Z,101291.02
2023-04-02T11:24:03.001Z,101293.41
2023-04-02T11:26:50.606Z,101295.14
2023-04-02T11:30:06.420Z,101302.94
2023-04-02T11:32:54.333Z,101305.38
2023-04-02T11:35:41.163Z,101304.30
2023-04-02T11:38:29.241Z,101309.03
2023-04-02T11:41:55.546Z,101307.62
2023-04-02T11:44:42.223Z,101307.91
2023-04-02T11:47:30.447Z,101309.73
2023-04-02T11:50:28.957Z,101317.48
2023-04-02T11:53:22.861Z,101322.09
2023-04-02T11:56:43.006Z,101326.20
2023-04-02T11:59:55.608Z,101332.17
2023-04-02T12:02:55.821Z,101334.46
2023-04-02T12:05:54.710Z,101339.86
2023-04-02T12:09:18.904Z,101344.05
2023-04-02T12:12:24.559Z,101351.23
2023-04-02T12:15:27.107Z,101356.71
2023-04-02T12:18:21.909Z,101353.14
2023-04-02T12:21:14.528Z,101365.41
2023-04-02T12:24:03.305Z,101366.94
2023-04-02T12:27:06.778Z,101373.06
2023-04-02T12:29:55.078Z,101372.59
2023-04-02T12:32:41.916Z,101371.71
2023-04-02T12:35:34.489Z,101369.56
2023-04-02T12:38:22.984Z,101379.85
2023-04-02T12:41:27.168Z,101384.84
2023-04-02T12:44:18.800Z,101383.27
2023-04-02T12:47:05.489Z,101390.97
2023-04-02T12:49:53.024Z,101392.86
2023-04-02T12:52:45.999Z,101396.67
2023-04-02T12:55:33.633Z,101395.97
2023-04-02T12:58:41.154Z,101402.08
2023-04-02T13:01:29.830Z,101409.23
2023-04-02T13:04:16.596Z,101413.30
2023-04-02T13:07:03.535Z,101413.73
2023-04-02T13:09:55.606Z,101415.18
2023-04-02T13:12:42.133Z,101430.61
2023-04-02T13:15:34.407Z,101425.83
2023-04-02T13:18:23.099Z,101428.73
2023-04-02T13:21:19.492Z,101425.75
2023-04-02T13:24:16.987Z,101429.92
2023-04-02T13:27:03.898Z,101432.55
2023-04-02T13:29:50.719Z,101434.40
2023-04-02T13:32:38.199Z,101439.49
2023-04-02T13:35:24.940Z,101440.42
2023-04-02T13:38:11.275Z,101441.48
2023-04-02T13:40:57.596Z,101447.41
2023-04-02T13:43:43.876Z,101453.46
2023-04-02T13:46:33.639Z,101450.74
2023-04-02T13:49:20.937Z,101450.71
2023-04-02T13:52:15.571Z,101455.14
2023-04-02T13:55:04.280Z,101456.97
2023-04-02T13:57:50.679Z,101460.11
2023-04-02T14:00:37.978Z,101466.02
2023-04-02T14:03:24.603Z,101466.09
2023-04-02T14:06:42.494Z,101477.70
2023-04-02T14:09:31.842Z,101485.64
2023-04-02T14:12:47.408Z,101480.68
2023-04-02T14:15:40.489Z,101479.66
2023-04-02T14:18:29.807Z,101480.45
2023-04-02T14:21:22.179Z,101492.95
2023-04-02T14:24:37.804Z,101501.88
2023-04-02T14:27:27.105Z,101500.59
2023-04-02T14:30:34.107Z,101501.20
2023-04-02T14:33:36.083Z,101499.92
2023-04-02T14:37:04.920Z,101503.42
2023-04-02T14:39:57.481Z,101510.70
2023-04-02T14:42:47.301Z,101511.36
2023-04-02T14:46:02.817Z,101516.05
2023-04-02T14:49:26.708Z,101518.86
2023-04-02T14:52:18.802Z,101523.52
2023-04-02T14:55:14.518Z,101519.30
2023-04-02T14:58:04.668Z,101528.02
2023-04-02T15:01:00.408Z,101539.91
2023-04-02T15:03:58.411Z,101542.79
2023-04-02T15:06:50.458Z,101542.40
2023-04-02T15:09:49.269Z,101544.23
2023-04-02T15:12:38.826Z,101555.89
2023-04-02T15:15:54.246Z,101557.81
2023-04-02T15:18:40.882Z,101566.20
2023-04-02T15:21:34.296Z,101561.54
2023-04-02T15:24:31.072Z,101569.00
2023-04-02T15:27:35.620Z,101584.48
2023-04-02T15:30:29.364Z,101594.48
2023-04-02T15:33:27.750Z,101599.52
2023-04-02T15:36:48.251Z,101599.31
2023-04-02T15:39:39.251Z,101609.02
2023-04-02T15:42:33.293Z,101622.83
2023-04-02T15:45:30.428Z,101628.23
2023-04-02T15:48:46.775Z,101638.83
2023-04-02T15:51:50.343Z,101634.77
2023-04-02T15:54:36.678Z,101647.96
2023-04-02T15:57:54.716Z,101660.17
2023-04-02T16:01:11.835Z,101660.47
2023-04-02T16:04:29.915Z,101661.92
2023-04-02T16:07:36.251Z,101673.88
2023-04-02T16:10:41.220Z,101679.35
2023-04-02T16:13:37.981Z,101686.92
2023-04-02T16:16:34.794Z,101688.67
2023-04-02T16:19:30.728Z,101694.71
2023-04-02T16:22:20.450Z,101699.96
2023-04-02T16:25:16.735Z,101711.95
2023-04-02T16:28:26.551Z,101716.27
2023-04-02T16:31:19.298Z,101721.94
2023-04-02T16:34:17.671Z,101720.08
2023-04-02T16:37:16.567Z,101728.79
2023-04-02T16:40:33.381Z,101733.08
2023-04-02T16:43:32.475Z,101734.66
2023-04-02T16:46:44.228Z,101742.78
2023-04-02T16:49:40.814Z,101748.77
2023-04-02T16:52:54.714Z,101747.80
2023-04-02T16:55:59.571Z,101757.20
2023-04-02T16:59:19.754Z,101756.11
2023-04-02T17:02:27.510Z,101762.45
2023-04-02T17:05:32.555Z,101770.02
2023-04-02T17:08:27.562Z,101768.08
2023-04-02T17:11:24.264Z,101766.02
2023-04-02T17:14:28.450Z,101777.86
2023-04-02T17:17:16.901Z,101785.70
2023-04-02T17:20:12.842Z,101787.56
2023-04-02T17:23:02.742Z,101793.59
2023-04-02T17:25:57.876Z,101794.05
2023-04-02T17:28:47.506Z,101798.13
2023-04-02T17:31:35.904Z,101797.66
2023-04-02T17:34:24.011Z,101803.73
2023-04-02T17:37:35.050Z,101809.00
2023-04-02T17:40:48.086Z,101810.52
2023-04-02T17:43:40.069Z,101815.55
2023-04-02T17:46:41.472Z,101820.66
2023-04-02T17:49:36.861Z,101825.10
2023-04-02T17:52:39.752Z,101830.55
2023-04-02T17:55:45.074Z,101844.63
2023-04-02T17:58:50.059Z,101848.75
2023-04-02T18:01:55.869Z,101853.86
2023-04-02T18:05:04.299Z,101858.70
2023-04-02T18:08:33.249Z,101860.89
2023-04-02T18:11:36.859Z,101865.77
2023-04-02T18:14:29.451Z,101870.88
2023-04-02T18:17:35.695Z,101881.61
2023-04-02T18:20:28.346Z,101889.92
2023-04-02T18:23:26.524Z,101891.19
2023-04-02T18:26:18.750Z,101898.84
2023-04-02T18:29:29.614Z,101906.08
2023-04-02T18:32:49.817Z,101914.45
2023-04-02T18:36:19.087Z,101913.84
2023-04-02T18:39:13.183Z,101918.85
2023-04-02T18:42:23.178Z,101926.11
2023-04-02T18:45:48.551Z,101934.19
2023-04-02T18:48:57.657Z,101942.99
2023-04-02T18:51:44.202Z,101942.10
2023-04-02T18:54:40.548Z,101943.73
2023-04-02T18:57:34.138Z,101945.71
2023-04-02T19:00:34.523Z,101950.86
2023-04-02T19:03:41.557Z,101956.93
2023-04-02T19:06:42.532Z,101960.84
2023-04-02T19:09:36.559Z,101962.39
2023-04-02T19:12:24.280Z,101965.52
2023-04-02T19:15:18.780Z,101969.84
2023-04-02T19:18:20.392Z,101970.92
2023-04-02T19:21:17.353Z,101971.05
2023-04-02T19:24:22.763Z,101978.61
2023-04-02T19:27:33.524Z,101978.01
2023-04-02T19:30:49.705Z,101984.86
2023-04-02T19:33:55.741Z,101984.88
2023-04-02T19:36:57.481Z,101986.70
2023-04-02T19:40:13.918Z,101989.52
2023-04-02T19:43:00.610Z,101988.77
2023-04-02T19:45:49.206Z,101990.20
2023-04-02T19:48:44.747Z,101997.22
2023-04-02T19:51:31.582Z,101995.71
2023-04-02T19:54:18.766Z,101994.21
2023-04-02T19:57:06.118Z,101998.39
2023-04-02T19:59:52.777Z,102002.92
2023-04-02T20:02:39.499Z,102005.45
2023-04-02T20:05:26.247Z,102006.89
2023-04-02T20:08:12.957Z,102015.70
2023-04-02T20:11:00.211Z,102014.20
2023-04-02T20:13:47.880Z,102018.95
2023-04-02T20:16:36.715Z,102022.09
2023-04-02T20:19:23.220Z,102024.02
2023-04-02T20:22:09.582Z,102024.63
2023-04-02T20:24:56.237Z,102027.30
2023-04-02T20:27:42.874Z,102030.35
2023-04-02T20:30:32.387Z,102036.14
2023-04-02T20:33:22.210Z,102040.64
2023-04-02T20:36:17.017Z,102040.16
2023-04-02T20:39:07.193Z,102044.08
2023-04-02T20:41:53.822Z,102039.11
2023-04-02T20:44:41.502Z,102054.70
2023-04-02T20:47:27.735Z,102052.23
2023-04-02T20:50:14.546Z,102056.17
2023-04-02T20:53:01.642Z,102059.61
2023-04-02T20:55:48.260Z,102063.90
2023-04-02T20:58:36.171Z,102068.15
2023-04-02T21:01:25.343Z,102073.59
2023-04-02T21:04:13.084Z,102072.75
2023-04-02T21:06:59.560Z,102074.07
2023-04-02T21:09:45.877Z,102078.84
2023-04-02T21:12:32.317Z,102079.28
2023-04-02T21:15:18.799Z,102081.89
2023-04-02T21:18:05.241Z,102088.14
2023-04-02T21:21:06.410Z,102090.30
2023-04-02T21:24:01.117Z,102094.14
2023-04-02T21:26:47.689Z,102095.13
2023-04-02T21:29:34.402Z,102097.16
2023-04-02T21:32:21.987Z,102098.86
2023-04-02T21:35:09.223Z,102103.72
2023-04-02T21:37:56.197Z,102105.17
2023-04-02T21:40:42.670Z,102107.33
2023-04-02T21:43:29.301Z,102108.45
2023-04-02T21:46:19.002Z,102108.33
2023-04-02T21:49:08.141Z,102112.88
2023-04-02T21:51:54.816Z,102113.77
2023-04-02T21:54:41.349Z,102116.95
2023-04-02T21:57:28.148Z,102121.37
2023-04-02T22:00:15.705Z,102121.55
2023-04-02T22:03:02.298Z,102127.20
2023-04-02T22:05:48.933Z,102125.13
2023-04-02T22:08:35.979Z,102130.83
2023-04-02T22:11:26.614Z,102130.37
2023-04-02T22:14:13.767Z,102132.08
2023-04-02T22:17:00.746Z,102135.20
2023-04-02T22:19:47.477Z,102131.57
2023-04-02T22:22:33.650Z,102140.14
2023-04-02T22:25:19.952Z,102139.91
2023-04-02T22:28:06.218Z,102144.44
2023-04-02T22:30:53.437Z,102145.50
2023-04-02T22:33:41.525Z,102145.73
2023-04-02T22:36:29.888Z,102146.80
2023-04-02T22:39:17.106Z,102144.92
2023-04-02T22:42:03.885Z,102147.55
2023-04-02T22:44:50.393Z,102146.65
2023-04-02T22:47:36.760Z,102149.27
2023-04-02T22:50:23.087Z,102151.86
2023-04-02T22:53:11.994Z,102150.91
2023-04-02T22:56:13.337Z,102154.24
2023-04-02T22:59:00.837Z,102155.31
2023-04-02T23:01:47.599Z,102157.26
2023-04-02T23:04:34.410Z,102160.73
2023-04-02T23:07:20.652Z,102163.40
2023-04-02T23:10:07.601Z,102158.52
2023-04-02T23:12:54.425Z,102164.55
2023-04-02T23:15:44.730Z,102168.80
2023-04-02T23:18:33.217Z,102165.05
2023-04-02T23:21:21.250Z,102167.30
2023-04-02T23:24:07.483Z,102167.77
2023-04-02T23:26:54.222Z,102172.06
2023-04-02T23:29:40.656Z,102173.48
2023-04-02T23:32:26.903Z,102175.64
2023-04-02T23:35:13.491Z,102178.25
2023-04-02T23:38:00.035Z,102179.08
2023-04-02T23:40:46.476Z,102180.23
2023-04-02T23:43:33.328Z,102184.59
2023-04-02T23:46:20.684Z,102185.95
2023-04-02T23:49:11.252Z,102191.58
2023-04-02T23:51:58.045Z,102191.06
2023-04-02T23:54:44.399Z,102189.60
2023-04-02T23:57:30.924Z,102188.08
